Time;durP1;ratioP1;P1;durP2;ratioP2;P2;SDS_P1;SDS_P2;PMS_P1;PMS_P2;Temp;Humidity;BMP_temperature;BMP_pressure;BME280_temperature;BME280_humidity;BME280_pressure;Samples;Min_cycle;Max_cycle;Signal;HPM_P1;HPM_P2
2023/05/21 00:01:42;;;;;;;8.55;5.25;;;;;;;;;;6161116;23;20060;-86
2023/05/21 00:04:10;;;;;;;9.60;6.25;;;;;;;;;;6160822;23;20067;-86
2023/05/21 00:06:36;;;;;;;6.97;6.13;;;;;;;;;;6160019;23;20016;-86
2023/05/21 00:09:03;;;;;;;8.82;7.07;;;;;;;;;;6160138;23;20040;-86
2023/05/21 00:11:29;;;;;;;9.50;6.38;;;;;;;;;;6161295;23;20371;-86
2023/05/21 00:13:55;;;;;;;10.38;6.72;;;;;;;;;;6136058;23;20040;-86
2023/05/21 00:16:22;;;;;;;10.50;6.47;;;;;;;;;;6156161;23;20021;-85
2023/05/21 00:18:48;;;;;;;7.75;5.63;;;;;;;;;;6157958;23;20017;-86
2023/05/21 00:21:16;;;;;;;13.10;6.95;;;;;;;;;;6157955;23;20100;-86
2023/05/21 00:23:42;;;;;;;9.52;6.63;;;;;;;;;;6157380;23;20018;-86
2023/05/21 00:26:08;;;;;;;9.13;6.85;;;;;;;;;;6155786;23;20014;-86
2023/05/21 00:28:34;;;;;;;9.70;7.90;;;;;;;;;;6157308;23;20032;-85
2023/05/21 00:31:01;;;;;;;12.10;8.07;;;;;;;;;;6159205;23;20453;-86
2023/05/21 00:33:27;;;;;;;11.02;9.93;;;;;;;;;;6158080;23;20017;-84
2023/05/21 00:35:53;;;;;;;10.77;8.30;;;;;;;;;;6159246;23;20014;-86
2023/05/21 00:38:20;;;;;;;12.98;6.22;;;;;;;;;;6157046;23;20041;-86
2023/05/21 00:40:47;;;;;;;11.20;5.90;;;;;;;;;;6157674;23;20032;-87
2023/05/21 00:43:13;;;;;;;10.07;5.50;;;;;;;;;;6157845;23;20092;-86
2023/05/21 00:45:43;;;;;;;7.65;4.93;;;;;;;;;;6159473;23;20089;-87
2023/05/21 00:48:09;;;;;;;6.82;5.07;;;;;;;;;;6158478;23;20049;-86
2023/05/21 00:50:38;;;;;;;10.70;4.80;;;;;;;;;;6160590;23;20064;-86
2023/05/21 00:53:08;;;;;;;9.70;5.72;;;;;;;;;;6158300;23;20013;-87
2023/05/21 00:55:34;;;;;;;9.82;5.50;;;;;;;;;;6158481;23;20036;-86
2023/05/21 00:58:00;;;;;;;8.73;5.78;;;;;;;;;;6157519;23;20068;-87
2023/05/21 01:00:27;;;;;;;9.45;5.35;;;;;;;;;;6158086;23;20056;-87
2023/05/21 01:02:53;;;;;;;11.35;6.32;;;;;;;;;;6159853;23;20017;-86
2023/05/21 01:05:20;;;;;;;10.93;5.53;;;;;;;;;;6133848;23;20449;-85
2023/05/21 01:07:47;;;;;;;7.22;5.40;;;;;;;;;;6132833;23;20443;-86
2023/05/21 01:10:13;;;;;;;8.93;5.78;;;;;;;;;;6157879;23;20017;-86
2023/05/21 01:12:39;;;;;;;10.07;6.13;;;;;;;;;;6157232;23;20052;-86
2023/05/21 01:15:06;;;;;;;10.13;5.97;;;;;;;;;;6159033;23;20010;-87
2023/05/21 01:17:32;;;;;;;20.13;6.68;;;;;;;;;;6160508;23;20014;-87
2023/05/21 01:19:59;;;;;;;11.73;7.55;;;;;;;;;;6160310;23;20021;-86
2023/05/21 01:22:27;;;;;;;12.80;7.88;;;;;;;;;;6136455;23;20423;-86
2023/05/21 01:24:54;;;;;;;14.20;12.90;;;;;;;;;;6158842;23;20021;-86
2023/05/21 01:27:21;;;;;;;13.63;10.98;;;;;;;;;;6132460;23;20063;-87
2023/05/21 01:29:50;;;;;;;10.27;7.03;;;;;;;;;;6158283;23;20017;-86
2023/05/21 01:32:32;;;;;;;10.27;9.27;;;;;;;;;;6133245;23;20047;-86
2023/05/21 01:35:05;;;;;;;9.27;7.72;;;;;;;;;;6133566;23;20013;-85
2023/05/21 01:37:34;;;;;;;12.32;7.75;;;;;;;;;;6132664;23;20060;-87
2023/05/21 01:40:05;;;;;;;11.52;6.28;;;;;;;;;;6133213;23;20017;-86
2023/05/21 01:42:31;;;;;;;8.07;5.75;;;;;;;;;;6159373;23;20010;-87
2023/05/21 01:44:59;;;;;;;8.98;5.85;;;;;;;;;;6157382;23;20021;-86
2023/05/21 01:47:26;;;;;;;10.77;7.15;;;;;;;;;;6157886;23;20021;-86
2023/05/21 01:49:52;;;;;;;8.82;6.22;;;;;;;;;;6159148;23;20341;-87
2023/05/21 01:52:18;;;;;;;10.77;6.15;;;;;;;;;;6159152;23;20053;-87
2023/05/21 01:54:44;;;;;;;7.93;5.85;;;;;;;;;;6157119;23;20036;-86
2023/05/21 01:57:10;;;;;;;12.15;6.65;;;;;;;;;;6132732;23;20290;-85
2023/05/21 01:59:37;;;;;;;11.20;7.28;;;;;;;;;;6158974;23;20013;-86
2023/05/21 02:02:03;;;;;;;12.02;6.55;;;;;;;;;;6157247;23;20013;-86
2023/05/21 02:04:30;;;;;;;10.90;6.25;;;;;;;;;;6132482;23;20013;-85
2023/05/21 02:06:56;;;;;;;10.93;6.95;;;;;;;;;;6156094;23;20017;-86
2023/05/21 02:09:22;;;;;;;10.63;6.20;;;;;;;;;;6131318;23;20180;-86
2023/05/21 02:11:48;;;;;;;8.35;6.47;;;;;;;;;;6158845;23;20025;-86
2023/05/21 02:14:15;;;;;;;10.65;5.93;;;;;;;;;;6156728;23;20025;-86
2023/05/21 02:16:41;;;;;;;10.45;7.03;;;;;;;;;;6131018;23;20055;-87
2023/05/21 02:19:09;;;;;;;11.48;6.90;;;;;;;;;;6132391;23;20032;-86
2023/05/21 02:21:35;;;;;;;13.13;7.18;;;;;;;;;;6157757;23;20010;-86
2023/05/21 02:24:01;;;;;;;11.75;7.60;;;;;;;;;;6156056;23;20021;-86
2023/05/21 02:26:27;;;;;;;14.07;7.93;;;;;;;;;;6157012;23;20029;-87
2023/05/21 02:28:54;;;;;;;12.77;7.28;;;;;;;;;;6157564;23;20024;-86
2023/05/21 02:31:20;;;;;;;11.25;8.35;;;;;;;;;;6132316;23;20013;-86
2023/05/21 02:33:46;;;;;;;12.05;8.43;;;;;;;;;;6158225;23;20037;-86
2023/05/21 02:36:14;;;;;;;12.55;8.25;;;;;;;;;;6156851;23;20127;-85
2023/05/21 02:38:44;;;;;;;12.85;7.40;;;;;;;;;;6130355;23;20021;-86
2023/05/21 02:41:13;;;;;;;10.85;7.03;;;;;;;;;;6156492;23;20006;-86
2023/05/21 02:43:39;;;;;;;11.35;8.02;;;;;;;;;;6158632;23;20116;-86
2023/05/21 02:46:06;;;;;;;13.27;7.38;;;;;;;;;;6156385;23;20017;-86
2023/05/21 02:48:32;;;;;;;10.88;7.05;;;;;;;;;;6157061;23;20017;-87
2023/05/21 02:50:58;;;;;;;13.20;7.80;;;;;;;;;;6157192;23;20080;-86
2023/05/21 02:53:25;;;;;;;13.20;7.93;;;;;;;;;;6155985;23;20048;-86
2023/05/21 02:55:51;;;;;;;12.32;7.80;;;;;;;;;;6155600;23;20016;-84
2023/05/21 02:58:17;;;;;;;12.38;7.70;;;;;;;;;;6156392;23;20017;-86
2023/05/21 03:00:43;;;;;;;12.50;7.72;;;;;;;;;;6156810;23;20088;-86
2023/05/21 03:03:10;;;;;;;11.57;7.80;;;;;;;;;;6130926;23;20013;-86
2023/05/21 03:05:36;;;;;;;15.13;7.90;;;;;;;;;;6131298;23;20018;-85
2023/05/21 03:08:02;;;;;;;13.32;7.32;;;;;;;;;;6130309;23;20024;-86
2023/05/21 03:10:28;;;;;;;15.57;7.05;;;;;;;;;;6131566;23;20014;-86
2023/05/21 03:12:57;;;;;;;13.05;7.30;;;;;;;;;;6132025;23;20254;-87
2023/05/21 03:15:23;;;;;;;11.25;7.13;;;;;;;;;;6156715;23;20037;-86
2023/05/21 03:17:52;;;;;;;13.80;7.60;;;;;;;;;;6155595;23;20087;-87
2023/05/21 03:20:18;;;;;;;12.10;7.63;;;;;;;;;;6134744;23;20032;-86
2023/05/21 03:22:45;;;;;;;12.80;7.72;;;;;;;;;;6157990;23;20448;-86
2023/05/21 03:25:11;;;;;;;10.75;7.35;;;;;;;;;;6158452;23;20097;-86
2023/05/21 03:27:38;;;;;;;12.70;7.28;;;;;;;;;;6132808;23;20080;-86
2023/05/21 03:30:04;;;;;;;13.60;7.38;;;;;;;;;;6159383;23;20072;-86
2023/05/21 03:32:32;;;;;;;12.13;7.55;;;;;;;;;;6131854;23;20046;-86
2023/05/21 03:34:58;;;;;;;14.48;7.45;;;;;;;;;;6156939;23;20536;-86
2023/05/21 03:37:25;;;;;;;12.15;7.68;;;;;;;;;;6156928;23;20013;-87
2023/05/21 03:39:51;;;;;;;15.13;7.35;;;;;;;;;;6131445;23;20084;-85
2023/05/21 03:42:17;;;;;;;11.88;7.82;;;;;;;;;;6156075;23;20014;-86
2023/05/21 03:44:43;;;;;;;14.05;7.95;;;;;;;;;;6155555;23;20519;-86
2023/05/21 03:47:09;;;;;;;10.65;7.35;;;;;;;;;;6155988;23;20017;-86
2023/05/21 03:49:35;;;;;;;12.60;7.88;;;;;;;;;;6156249;23;20025;-86
2023/05/21 03:52:01;;;;;;;11.77;7.88;;;;;;;;;;6156187;23;20045;-86
2023/05/21 03:54:27;;;;;;;12.00;7.68;;;;;;;;;;6131440;23;20200;-86
2023/05/21 03:56:53;;;;;;;12.18;7.60;;;;;;;;;;6156552;23;20453;-86
2023/05/21 03:59:19;;;;;;;11.30;7.00;;;;;;;;;;6156787;23;20093;-87
2023/05/21 04:01:45;;;;;;;11.80;7.78;;;;;;;;;;6155846;23;20341;-86
2023/05/21 04:04:11;;;;;;;12.00;7.85;;;;;;;;;;6156305;23;20054;-86
2023/05/21 04:06:37;;;;;;;12.20;7.45;;;;;;;;;;6154946;23;20017;-86
2023/05/21 04:09:03;;;;;;;13.38;7.65;;;;;;;;;;6131468;23;20020;-87
2023/05/21 04:11:30;;;;;;;11.73;7.75;;;;;;;;;;6156215;23;20017;-86
2023/05/21 04:13:56;;;;;;;14.95;8.25;;;;;;;;;;6156014;23;20024;-86
2023/05/21 04:16:23;;;;;;;11.43;7.75;;;;;;;;;;6155916;23;20028;-86
2023/05/21 04:18:49;;;;;;;13.27;7.72;;;;;;;;;;6157168;23;20018;-86
2023/05/21 04:21:15;;;;;;;13.88;8.35;;;;;;;;;;6156013;23;20092;-86
2023/05/21 04:23:41;;;;;;;14.45;8.77;;;;;;;;;;6130799;23;20108;-87
2023/05/21 04:26:07;;;;;;;12.20;7.80;;;;;;;;;;6157749;23;20021;-86
2023/05/21 04:28:34;;;;;;;11.70;7.47;;;;;;;;;;6129826;23;20049;-86
2023/05/21 04:31:00;;;;;;;13.68;8.40;;;;;;;;;;6131112;23;20102;-86
2023/05/21 04:33:27;;;;;;;15.27;8.70;;;;;;;;;;6154935;23;20018;-86
2023/05/21 04:35:53;;;;;;;13.88;8.05;;;;;;;;;;6130691;23;20009;-86
2023/05/21 04:38:19;;;;;;;13.98;7.80;;;;;;;;;;6155332;23;20014;-85
2023/05/21 04:40:52;;;;;;;12.80;7.45;;;;;;;;;;6155044;23;20093;-86
2023/05/21 04:43:24;;;;;;;13.75;7.03;;;;;;;;;;6130609;23;20072;-85
2023/05/21 04:45:50;;;;;;;15.65;7.30;;;;;;;;;;6155286;23;20013;-87
2023/05/21 04:48:16;;;;;;;14.75;7.57;;;;;;;;;;6155502;23;20049;-85
2023/05/21 04:50:43;;;;;;;13.30;7.25;;;;;;;;;;6157670;23;20068;-86
2023/05/21 04:53:09;;;;;;;13.35;7.35;;;;;;;;;;6154573;23;20105;-87
2023/05/21 04:55:38;;;;;;;12.25;6.85;;;;;;;;;;6156175;23;20018;-86
2023/05/21 04:58:05;;;;;;;10.60;7.07;;;;;;;;;;6155363;23;20096;-85
2023/05/21 05:00:32;;;;;;;14.57;6.90;;;;;;;;;;6154282;23;20037;-88
2023/05/21 05:02:58;;;;;;;12.32;6.93;;;;;;;;;;6157506;23;20020;-86
2023/05/21 05:05:24;;;;;;;11.27;6.72;;;;;;;;;;6155454;23;20036;-85
2023/05/21 05:07:50;;;;;;;13.52;7.72;;;;;;;;;;6154180;23;20017;-86
2023/05/21 05:10:17;;;;;;;10.77;6.75;;;;;;;;;;6153666;23;20124;-84
2023/05/21 05:12:43;;;;;;;12.40;6.10;;;;;;;;;;6154224;23;20103;-83
2023/05/21 05:15:09;;;;;;;9.75;6.72;;;;;;;;;;6154552;23;20025;-85
2023/05/21 05:17:35;;;;;;;10.57;7.50;;;;;;;;;;6129057;23;20052;-85
2023/05/21 05:20:01;;;;;;;14.55;7.35;;;;;;;;;;6130439;23;20421;-84
2023/05/21 05:22:27;;;;;;;11.65;7.30;;;;;;;;;;6130819;23;20018;-86
2023/05/21 05:24:53;;;;;;;15.52;7.63;;;;;;;;;;6158706;23;20013;-87
2023/05/21 05:27:19;;;;;;;15.75;7.18;;;;;;;;;;6157857;23;20013;-84
2023/05/21 05:29:45;;;;;;;13.77;7.13;;;;;;;;;;6132346;23;20096;-85
2023/05/21 05:32:11;;;;;;;11.30;6.78;;;;;;;;;;6156102;23;20040;-86
2023/05/21 05:34:37;;;;;;;9.43;5.70;;;;;;;;;;6156178;23;20456;-85
2023/05/21 05:37:03;;;;;;;10.45;6.15;;;;;;;;;;6129867;23;20111;-83
2023/05/21 05:39:29;;;;;;;8.85;6.28;;;;;;;;;;6129958;23;20045;-86
2023/05/21 05:41:56;;;;;;;10.15;6.25;;;;;;;;;;6156141;23;20013;-86
2023/05/21 05:44:24;;;;;;;12.00;6.20;;;;;;;;;;6136706;23;20463;-86
2023/05/21 05:46:50;;;;;;;10.15;6.43;;;;;;;;;;6160166;23;20017;-87
2023/05/21 05:49:16;;;;;;;11.27;6.13;;;;;;;;;;6161299;23;20072;-86
2023/05/21 05:51:43;;;;;;;10.80;6.45;;;;;;;;;;6160308;23;20018;-84
2023/05/21 05:54:09;;;;;;;8.35;6.22;;;;;;;;;;6137436;23;20041;-86
2023/05/21 05:56:35;;;;;;;10.68;7.00;;;;;;;;;;6162925;23;20017;-86
2023/05/21 05:59:01;;;;;;;12.55;6.15;;;;;;;;;;6162192;23;20009;-87
2023/05/21 06:01:27;;;;;;;12.88;5.65;;;;;;;;;;6152811;23;20019;-87
2023/05/21 06:03:53;;;;;;;10.52;6.28;;;;;;;;;;6152787;23;20023;-87
2023/05/21 06:06:19;;;;;;;11.18;5.82;;;;;;;;;;6153289;23;20018;-87
2023/05/21 06:08:45;;;;;;;8.63;5.22;;;;;;;;;;6153474;23;20044;-87
2023/05/21 06:11:11;;;;;;;12.50;6.00;;;;;;;;;;6152778;23;20013;-87
2023/05/21 06:13:37;;;;;;;7.45;5.00;;;;;;;;;;6153142;23;20047;-85
2023/05/21 06:16:03;;;;;;;12.80;5.57;;;;;;;;;;6158752;23;20021;-84
2023/05/21 06:18:29;;;;;;;13.07;6.57;;;;;;;;;;6183884;23;20017;-84
2023/05/21 06:20:55;;;;;;;9.55;5.82;;;;;;;;;;6132459;23;20024;-88
2023/05/21 06:23:21;;;;;;;11.32;5.80;;;;;;;;;;6157790;23;20017;-85
2023/05/21 06:25:47;;;;;;;13.07;6.05;;;;;;;;;;6158608;23;20027;-87
2023/05/21 06:28:14;;;;;;;11.13;5.50;;;;;;;;;;6185397;23;20013;-88
2023/05/21 06:30:40;;;;;;;10.40;6.15;;;;;;;;;;6133276;23;20061;-88
2023/05/21 06:33:06;;;;;;;10.43;6.55;;;;;;;;;;6133607;23;20063;-84
2023/05/21 06:35:35;;;;;;;11.15;6.30;;;;;;;;;;6157717;23;20013;-91
2023/05/21 06:38:01;;;;;;;13.07;5.57;;;;;;;;;;6159196;23;20013;-90
2023/05/21 06:40:27;;;;;;;10.93;5.28;;;;;;;;;;6158469;23;20013;-89
2023/05/21 06:42:55;;;;;;;9.98;5.13;;;;;;;;;;6158671;23;20459;-89
2023/05/21 06:45:21;;;;;;;8.88;5.25;;;;;;;;;;6157168;23;20412;-89
2023/05/21 06:47:47;;;;;;;10.57;5.40;;;;;;;;;;6182082;23;20013;-89
2023/05/21 06:50:13;;;;;;;8.95;5.80;;;;;;;;;;6155956;23;20444;-89
2023/05/21 06:52:39;;;;;;;11.73;6.00;;;;;;;;;;6131589;23;20020;-89
2023/05/21 06:55:05;;;;;;;9.00;5.50;;;;;;;;;;6131189;23;20065;-89
2023/05/21 06:57:31;;;;;;;11.00;5.95;;;;;;;;;;6155840;23;20013;-89
2023/05/21 06:59:57;;;;;;;12.15;5.97;;;;;;;;;;6182145;23;20032;-89
2023/05/21 07:02:23;;;;;;;11.45;5.20;;;;;;;;;;6133012;23;20013;-89
2023/05/21 07:04:50;;;;;;;12.40;5.25;;;;;;;;;;6184592;23;20037;-89
2023/05/21 07:07:16;;;;;;;8.85;5.47;;;;;;;;;;6133608;23;20091;-89
2023/05/21 07:09:42;;;;;;;8.02;5.10;;;;;;;;;;6158205;23;20017;-89
2023/05/21 07:12:08;;;;;;;12.45;5.55;;;;;;;;;;6157989;23;20092;-89
2023/05/21 07:14:34;;;;;;;12.88;5.43;;;;;;;;;;6157490;23;20095;-89
2023/05/21 07:17:00;;;;;;;12.15;5.60;;;;;;;;;;6157526;23;20441;-89
2023/05/21 07:19:26;;;;;;;11.38;5.57;;;;;;;;;;6157587;23;20045;-90
2023/05/21 07:21:52;;;;;;;11.90;5.70;;;;;;;;;;6133621;23;20017;-88
2023/05/21 07:24:18;;;;;;;11.02;5.63;;;;;;;;;;6133909;23;20480;-89
2023/05/21 07:26:44;;;;;;;11.68;5.22;;;;;;;;;;6162013;23;20028;-89
2023/05/21 07:29:10;;;;;;;12.65;6.72;;;;;;;;;;6185652;23;20372;-89
2023/05/21 07:31:36;;;;;;;8.88;6.68;;;;;;;;;;6161208;23;20017;-86
2023/05/21 07:34:02;;;;;;;10.10;6.95;;;;;;;;;;6160201;23;20117;-86
2023/05/21 07:36:28;;;;;;;10.18;6.97;;;;;;;;;;6157932;23;20445;-87
2023/05/21 07:38:55;;;;;;;11.23;9.00;;;;;;;;;;6158311;23;20013;-87
2023/05/21 07:41:21;;;;;;;12.05;9.10;;;;;;;;;;6157815;23;20024;-87
2023/05/21 07:43:47;;;;;;;9.75;7.68;;;;;;;;;;6157586;23;20270;-87
2023/05/21 07:46:13;;;;;;;10.85;8.10;;;;;;;;;;6133125;23;20013;-89
2023/05/21 07:48:40;;;;;;;12.48;8.68;;;;;;;;;;6184508;23;20083;-89
2023/05/21 07:51:06;;;;;;;12.43;8.43;;;;;;;;;;6133228;23;20441;-90
2023/05/21 07:53:33;;;;;;;14.80;7.43;;;;;;;;;;6133374;23;20048;-89
2023/05/21 07:55:59;;;;;;;11.23;6.38;;;;;;;;;;6133318;23;20013;-90
2023/05/21 07:58:25;;;;;;;11.85;8.30;;;;;;;;;;6157331;23;20084;-89
2023/05/21 08:00:51;;;;;;;11.05;6.78;;;;;;;;;;6133105;23;20028;-90
2023/05/21 08:03:17;;;;;;;11.35;6.95;;;;;;;;;;6158104;23;20027;-89
2023/05/21 08:05:47;;;;;;;13.60;7.78;;;;;;;;;;6157265;23;20024;-90
2023/05/21 08:08:17;;;;;;;11.57;7.03;;;;;;;;;;6158182;23;20091;-89
2023/05/21 08:10:43;;;;;;;11.20;5.35;;;;;;;;;;6157599;23;20071;-89
2023/05/21 08:13:10;;;;;;;11.07;5.75;;;;;;;;;;6156845;23;20507;-89
2023/05/21 08:15:36;;;;;;;11.18;5.68;;;;;;;;;;6132675;23;20452;-85
2023/05/21 08:18:03;;;;;;;9.55;5.65;;;;;;;;;;6157069;23;20019;-89
2023/05/21 08:20:30;;;;;;;11.82;5.60;;;;;;;;;;6158096;23;20124;-89
2023/05/21 08:22:58;;;;;;;15.07;5.65;;;;;;;;;;6132849;23;20044;-90
2023/05/21 08:25:25;;;;;;;13.48;6.65;;;;;;;;;;6133184;23;20021;-90
2023/05/21 08:27:51;;;;;;;14.32;6.35;;;;;;;;;;6132688;23;20078;-90
2023/05/21 08:30:17;;;;;;;11.27;6.30;;;;;;;;;;6133062;23;20028;-89
2023/05/21 08:32:43;;;;;;;11.25;5.90;;;;;;;;;;6184080;23;20009;-90
2023/05/21 08:35:09;;;;;;;13.27;6.70;;;;;;;;;;6157330;23;20013;-89
2023/05/21 08:37:35;;;;;;;11.73;5.60;;;;;;;;;;6157811;23;20013;-91
2023/05/21 08:40:02;;;;;;;11.38;5.50;;;;;;;;;;6132913;23;20086;-89
2023/05/21 08:42:28;;;;;;;11.93;5.57;;;;;;;;;;6157211;23;20013;-90
2023/05/21 08:44:58;;;;;;;9.38;5.75;;;;;;;;;;6183791;23;20055;-90
2023/05/21 08:47:26;;;;;;;12.85;6.15;;;;;;;;;;6159308;23;20032;-89
2023/05/21 08:49:52;;;;;;;9.52;7.57;;;;;;;;;;6159413;23;20444;-90
2023/05/21 08:52:20;;;;;;;12.75;6.93;;;;;;;;;;6159542;23;20665;-90
2023/05/21 08:54:46;;;;;;;9.55;7.13;;;;;;;;;;6185780;23;20017;-89
2023/05/21 08:57:13;;;;;;;12.57;7.90;;;;;;;;;;6158666;23;20187;-89
2023/05/21 08:59:42;;;;;;;8.98;6.97;;;;;;;;;;6159298;23;20009;-89
2023/05/21 09:02:11;;;;;;;14.50;7.50;;;;;;;;;;6159214;23;20463;-90
2023/05/21 09:04:38;;;;;;;11.63;7.07;;;;;;;;;;6185445;23;20021;-90
2023/05/21 09:07:04;;;;;;;9.45;6.35;;;;;;;;;;6134382;23;20016;-89
2023/05/21 09:09:34;;;;;;;10.77;5.72;;;;;;;;;;6159374;23;20021;-91
2023/05/21 09:12:00;;;;;;;12.35;6.10;;;;;;;;;;6159218;23;20045;-89
2023/05/21 09:14:26;;;;;;;12.50;5.78;;;;;;;;;;6158850;23;20084;-90
2023/05/21 09:16:52;;;;;;;8.38;5.38;;;;;;;;;;6129856;23;20021;-89
2023/05/21 09:19:22;;;;;;;9.75;5.80;;;;;;;;;;6153695;23;20018;-89
2023/05/21 09:21:50;;;;;;;11.20;5.68;;;;;;;;;;6154484;23;20017;-90
2023/05/21 09:24:16;;;;;;;9.55;5.88;;;;;;;;;;6154994;23;20457;-90
2023/05/21 09:26:43;;;;;;;10.45;5.88;;;;;;;;;;6155343;23;20045;-88
2023/05/21 09:29:09;;;;;;;14.15;5.72;;;;;;;;;;6152104;23;20017;-82
2023/05/21 09:31:35;;;;;;;10.55;6.25;;;;;;;;;;6152508;23;20043;-83
2023/05/21 09:34:01;;;;;;;10.07;5.55;;;;;;;;;;6151790;23;20464;-85
2023/05/21 09:36:28;;;;;;;11.07;5.15;;;;;;;;;;6127296;23;20014;-86
2023/05/21 09:38:54;;;;;;;11.75;4.82;;;;;;;;;;6151774;23;20076;-84
2023/05/21 09:41:30;;;;;;;8.30;5.70;;;;;;;;;;6127567;23;20010;-84
2023/05/21 09:43:59;;;;;;;12.20;6.50;;;;;;;;;;6153197;23;20068;-89
2023/05/21 09:46:26;;;;;;;10.13;6.47;;;;;;;;;;6153930;23;20018;-90
2023/05/21 09:48:52;;;;;;;11.32;6.60;;;;;;;;;;6155605;23;20079;-94
2023/05/21 09:51:19;;;;;;;10.38;5.80;;;;;;;;;;6163110;23;20449;-96
2023/05/21 09:53:48;;;;;;;8.80;5.47;;;;;;;;;;6154549;23;20459;-94
2023/05/21 09:56:14;;;;;;;9.52;5.93;;;;;;;;;;6129426;23;20454;-89
2023/05/21 09:58:40;;;;;;;8.82;5.55;;;;;;;;;;6152801;23;20092;-88
2023/05/21 10:01:07;;;;;;;10.90;7.60;;;;;;;;;;6153525;23;20383;-88
2023/05/21 10:03:38;;;;;;;9.25;5.47;;;;;;;;;;6153847;23;20086;-89
2023/05/21 10:06:05;;;;;;;18.15;5.82;;;;;;;;;;6153264;23;20013;-88
2023/05/21 10:08:35;;;;;;;10.57;5.72;;;;;;;;;;6153499;23;20014;-92
2023/05/21 10:11:02;;;;;;;9.80;5.30;;;;;;;;;;6128924;23;20064;-91
2023/05/21 10:13:28;;;;;;;11.40;6.60;;;;;;;;;;6129065;23;20018;-88
2023/05/21 10:16:02;;;;;;;10.32;8.35;;;;;;;;;;6156524;23;20512;-88
2023/05/21 10:18:29;;;;;;;11.23;7.22;;;;;;;;;;6158403;23;20432;-89
2023/05/21 10:20:55;;;;;;;10.80;6.85;;;;;;;;;;6132630;23;20124;-87
2023/05/21 10:23:22;;;;;;;9.40;7.60;;;;;;;;;;6157133;23;20009;-86
2023/05/21 10:25:49;;;;;;;15.13;8.40;;;;;;;;;;6156791;23;20020;-86
2023/05/21 10:28:17;;;;;;;16.95;6.90;;;;;;;;;;6157445;23;20017;-90
2023/05/21 10:30:44;;;;;;;12.82;7.07;;;;;;;;;;6183773;23;20100;-86
2023/05/21 10:33:11;;;;;;;11.38;5.35;;;;;;;;;;6157322;23;20013;-86
2023/05/21 10:35:40;;;;;;;8.75;5.57;;;;;;;;;;6132409;23;20025;-87
2023/05/21 10:38:06;;;;;;;10.48;5.60;;;;;;;;;;6158362;23;20019;-88
2023/05/21 10:40:32;;;;;;;12.30;5.55;;;;;;;;;;6157616;23;20028;-87
2023/05/21 10:42:58;;;;;;;8.38;5.43;;;;;;;;;;6157824;23;20016;-88
2023/05/21 10:45:24;;;;;;;8.25;5.43;;;;;;;;;;6157623;23;20088;-86
2023/05/21 10:48:03;;;;;;;10.43;5.13;;;;;;;;;;6158105;23;20091;-88
2023/05/21 10:50:29;;;;;;;11.70;5.80;;;;;;;;;;6157682;23;20109;-88
2023/05/21 10:52:56;;;;;;;9.35;6.15;;;;;;;;;;6133073;23;20088;-87
2023/05/21 10:55:38;;;;;;;11.63;5.50;;;;;;;;;;6183850;23;20016;-88
2023/05/21 10:58:16;;;;;;;8.82;5.70;;;;;;;;;;6158456;23;20108;-87
2023/05/21 11:00:42;;;;;;;10.18;5.93;;;;;;;;;;6158023;23;20020;-89
2023/05/21 11:03:10;;;;;;;11.38;5.35;;;;;;;;;;6133761;23;20096;-88
2023/05/21 11:05:41;;;;;;;15.98;5.35;;;;;;;;;;6156956;23;20016;-87
2023/05/21 11:08:39;;;;;;;8.40;5.63;;;;;;;;;;6158787;23;20039;-87
2023/05/21 11:11:05;;;;;;;14.63;5.80;;;;;;;;;;6124351;23;20017;-84
2023/05/21 11:13:48;;;;;;;13.32;6.80;;;;;;;;;;6187941;23;20028;-83
2023/05/21 11:16:15;;;;;;;12.30;6.17;;;;;;;;;;6135006;23;20133;-83
2023/05/21 11:18:41;;;;;;;10.18;7.20;;;;;;;;;;6187403;23;20088;-84
2023/05/21 11:21:10;;;;;;;9.15;6.38;;;;;;;;;;6160112;23;20400;-83
2023/05/21 11:23:55;;;;;;;11.68;7.60;;;;;;;;;;6189346;23;20055;-85
2023/05/21 11:26:25;;;;;;;16.77;8.30;;;;;;;;;;6140208;23;20009;-85
2023/05/21 11:29:04;;;;;;;7.93;6.20;;;;;;;;;;6163685;23;20021;-85
2023/05/21 11:31:36;;;;;;;14.10;7.15;;;;;;;;;;6187754;23;20013;-86
2023/05/21 11:34:12;;;;;;;9.55;6.43;;;;;;;;;;6162450;23;20075;-85
2023/05/21 11:36:43;;;;;;;12.52;6.47;;;;;;;;;;6162733;23;20013;-85
2023/05/21 11:39:12;;;;;;;10.98;7.05;;;;;;;;;;6165262;23;20013;-86
2023/05/21 11:41:57;;;;;;;13.68;7.20;;;;;;;;;;6164524;23;20437;-84
2023/05/21 11:44:42;;;;;;;10.63;7.07;;;;;;;;;;6140280;23;20012;-86
2023/05/21 11:47:13;;;;;;;10.18;6.65;;;;;;;;;;6139346;23;20028;-86
2023/05/21 11:49:39;;;;;;;12.70;7.63;;;;;;;;;;6163254;23;20017;-85
2023/05/21 11:52:06;;;;;;;14.13;8.90;;;;;;;;;;6165205;23;20013;-85
2023/05/21 11:54:35;;;;;;;12.05;8.25;;;;;;;;;;6165299;23;20021;-85
2023/05/21 11:57:01;;;;;;;13.52;8.98;;;;;;;;;;6166333;23;20024;-82
2023/05/21 11:59:27;;;;;;;14.57;9.23;;;;;;;;;;6188263;23;20052;-85
2023/05/21 12:01:55;;;;;;;14.75;9.70;;;;;;;;;;6138268;23;20024;-86
2023/05/21 12:04:21;;;;;;;16.08;11.25;;;;;;;;;;6160780;23;20045;-85
2023/05/21 12:06:49;;;;;;;17.17;9.27;;;;;;;;;;6162366;23;20021;-84
2023/05/21 12:09:15;;;;;;;12.20;9.75;;;;;;;;;;6161039;23;20092;-86
2023/05/21 12:11:41;;;;;;;13.85;9.80;;;;;;;;;;6187177;23;20052;-88
2023/05/21 12:14:08;;;;;;;12.80;8.85;;;;;;;;;;6186735;23;20028;-83
2023/05/21 12:16:34;;;;;;;15.55;10.32;;;;;;;;;;6186049;23;20017;-83
2023/05/21 12:19:01;;;;;;;13.80;8.88;;;;;;;;;;6184344;23;20009;-83
2023/05/21 12:21:28;;;;;;;13.70;9.18;;;;;;;;;;6159151;23;20088;-83
2023/05/21 12:23:54;;;;;;;19.67;9.90;;;;;;;;;;6188108;23;20028;-83
2023/05/21 12:26:21;;;;;;;14.40;9.63;;;;;;;;;;6160378;23;20017;-83
2023/05/21 12:28:48;;;;;;;14.68;8.82;;;;;;;;;;6160782;23;20402;-84
2023/05/21 12:31:15;;;;;;;16.38;10.18;;;;;;;;;;6135239;23;20476;-83
2023/05/21 12:33:46;;;;;;;14.30;9.10;;;;;;;;;;6185012;23;20009;-82
2023/05/21 12:36:20;;;;;;;15.45;8.98;;;;;;;;;;6185589;23;20062;-82
2023/05/21 12:38:46;;;;;;;17.77;10.30;;;;;;;;;;6186491;23;20044;-83
2023/05/21 12:41:12;;;;;;;14.60;10.48;;;;;;;;;;6137142;23;20024;-88
2023/05/21 12:43:38;;;;;;;16.65;10.73;;;;;;;;;;6194367;23;20084;-87
2023/05/21 12:46:05;;;;;;;12.85;9.55;;;;;;;;;;6170518;23;20024;-89
2023/05/21 12:48:31;;;;;;;17.48;11.68;;;;;;;;;;6197472;23;20013;-89
2023/05/21 12:50:58;;;;;;;20.73;11.73;;;;;;;;;;6194771;23;20013;-91
2023/05/21 12:53:24;;;;;;;21.08;11.60;;;;;;;;;;6171000;23;20060;-86
2023/05/21 12:55:55;;;;;;;20.08;12.10;;;;;;;;;;6194204;23;20028;-87
2023/05/21 12:58:21;;;;;;;16.48;11.43;;;;;;;;;;6190944;23;20017;-85
2023/05/21 13:00:47;;;;;;;17.55;10.98;;;;;;;;;;6191209;23;20020;-85
2023/05/21 13:03:13;;;;;;;17.33;10.90;;;;;;;;;;6194092;23;20048;-86
2023/05/21 13:05:40;;;;;;;15.65;11.98;;;;;;;;;;6168163;23;20017;-85
2023/05/21 13:08:08;;;;;;;15.05;11.45;;;;;;;;;;6194289;23;20135;-86
2023/05/21 13:10:34;;;;;;;20.52;11.25;;;;;;;;;;6192908;23;20017;-85
2023/05/21 13:13:00;;;;;;;22.40;11.90;;;;;;;;;;6160685;23;20021;-88
2023/05/21 13:15:26;;;;;;;13.90;10.60;;;;;;;;;;6185118;23;20290;-88
2023/05/21 13:17:52;;;;;;;14.75;9.27;;;;;;;;;;6157423;23;20028;-87
2023/05/21 13:20:20;;;;;;;16.17;10.18;;;;;;;;;;6184224;23;20009;-87
2023/05/21 13:22:53;;;;;;;16.85;10.48;;;;;;;;;;6157680;23;20017;-87
2023/05/21 13:25:19;;;;;;;17.90;11.45;;;;;;;;;;6157254;23;20021;-86
2023/05/21 13:27:46;;;;;;;22.38;12.15;;;;;;;;;;6157407;23;20012;-87
2023/05/21 13:30:12;;;;;;;16.83;12.02;;;;;;;;;;6183994;23;20017;-87
2023/05/21 13:32:39;;;;;;;18.75;11.75;;;;;;;;;;6156692;23;20060;-86
2023/05/21 13:35:05;;;;;;;16.65;12.02;;;;;;;;;;6157132;23;20024;-85
2023/05/21 13:37:31;;;;;;;18.05;12.52;;;;;;;;;;6132492;23;20055;-86
2023/05/21 13:39:57;;;;;;;19.25;11.68;;;;;;;;;;6158143;23;20109;-88
2023/05/21 13:42:23;;;;;;;19.20;12.55;;;;;;;;;;6184387;23;20052;-86
2023/05/21 13:44:50;;;;;;;18.27;12.73;;;;;;;;;;6157659;23;20021;-87
2023/05/21 13:47:16;;;;;;;19.70;14.05;;;;;;;;;;6183230;23;20443;-87
2023/05/21 13:49:42;;;;;;;17.05;12.18;;;;;;;;;;6155609;23;20013;-87
2023/05/21 13:52:08;;;;;;;20.02;12.93;;;;;;;;;;6156756;23;20016;-86
2023/05/21 13:54:35;;;;;;;22.25;14.07;;;;;;;;;;6157072;23;20025;-87
2023/05/21 13:57:01;;;;;;;16.85;11.90;;;;;;;;;;6132511;23;20013;-86
2023/05/21 13:59:27;;;;;;;19.85;13.07;;;;;;;;;;6182877;23;20013;-86
2023/05/21 14:01:54;;;;;;;24.60;14.57;;;;;;;;;;6156310;23;20064;-86
2023/05/21 14:04:20;;;;;;;20.85;13.70;;;;;;;;;;6184037;23;20088;-88
2023/05/21 14:06:46;;;;;;;22.77;16.48;;;;;;;;;;6184052;23;20017;-86
2023/05/21 14:09:12;;;;;;;22.20;16.90;;;;;;;;;;6183574;23;20012;-83
2023/05/21 14:11:38;;;;;;;20.60;15.70;;;;;;;;;;6183447;23;20578;-87
2023/05/21 14:14:05;;;;;;;23.50;16.05;;;;;;;;;;6152205;23;20017;-83
2023/05/21 14:16:31;;;;;;;22.92;15.45;;;;;;;;;;6182341;23;20017;-84
2023/05/21 14:18:57;;;;;;;23.83;14.20;;;;;;;;;;6183066;23;20024;-84
2023/05/21 14:21:23;;;;;;;25.67;17.02;;;;;;;;;;6183227;23;20012;-85
2023/05/21 14:23:50;;;;;;;23.40;15.88;;;;;;;;;;6156888;23;20069;-84
2023/05/21 14:26:16;;;;;;;25.20;18.10;;;;;;;;;;6156851;23;20021;-85
2023/05/21 14:28:42;;;;;;;25.48;19.73;;;;;;;;;;6156657;23;20029;-83
2023/05/21 14:31:08;;;;;;;23.23;19.65;;;;;;;;;;6182103;23;20013;-82